sensor_id;sensor_type;location;lat;lon;timestamp;P1;durP1;ratioP1;P2;durP2;ratioP2
71046;SDS011;58703;48.978;8.982;2023-09-07T00:00:30;3.55;;;2.85;;
71046;SDS011;58703;48.978;8.982;2023-09-07T00:02:56;5.80;;;3.03;;
71046;SDS011;58703;48.978;8.982;2023-09-07T00:05:22;2.77;;;2.50;;
71046;SDS011;58703;48.978;8.982;2023-09-07T00:07:48;2.97;;;2.63;;
71046;SDS011;58703;48.978;8.982;2023-09-07T00:10:16;3.30;;;2.53;;
71046;SDS011;58703;48.978;8.982;2023-09-07T00:12:43;4.53;;;2.78;;
71046;SDS011;58703;48.978;8.982;2023-09-07T00:15:09;2.92;;;2.60;;
71046;SDS011;58703;48.978;8.982;2023-09-07T00:17:35;4.15;;;2.50;;
71046;SDS011;58703;48.978;8.982;2023-09-07T00:20:02;2.97;;;2.20;;
71046;SDS011;58703;48.978;8.982;2023-09-07T00:22:35;3.30;;;2.13;;
71046;SDS011;58703;48.978;8.982;2023-09-07T00:25:02;2.92;;;2.42;;
71046;SDS011;58703;48.978;8.982;2023-09-07T00:27:29;3.00;;;2.50;;
71046;SDS011;58703;48.978;8.982;2023-09-07T00:29:55;3.53;;;2.33;;
71046;SDS011;58703;48.978;8.982;2023-09-07T00:32:21;3.97;;;2.72;;
71046;SDS011;58703;48.978;8.982;2023-09-07T00:34:46;2.83;;;2.53;;
71046;SDS011;58703;48.978;8.982;2023-09-07T00:37:12;3.25;;;2.53;;
71046;SDS011;58703;48.978;8.982;2023-09-07T00:39:39;3.30;;;2.60;;
71046;SDS011;58703;48.978;8.982;2023-09-07T00:42:04;3.88;;;2.92;;
71046;SDS011;58703;48.978;8.982;2023-09-07T00:44:30;4.13;;;2.43;;
71046;SDS011;58703;48.978;8.982;2023-09-07T00:46:56;3.80;;;3.03;;
71046;SDS011;58703;48.978;8.982;2023-09-07T00:49:22;4.73;;;3.13;;
71046;SDS011;58703;48.978;8.982;2023-09-07T00:51:48;6.78;;;2.88;;
71046;SDS011;58703;48.978;8.982;2023-09-07T00:54:14;2.90;;;2.60;;
71046;SDS011;58703;48.978;8.982;2023-09-07T00:56:40;3.30;;;2.97;;
71046;SDS011;58703;48.978;8.982;2023-09-07T00:59:07;7.10;;;3.20;;
71046;SDS011;58703;48.978;8.982;2023-09-07T01:01:34;6.90;;;3.50;;
71046;SDS011;58703;48.978;8.982;2023-09-07T01:04:00;3.97;;;2.77;;
71046;SDS011;58703;48.978;8.982;2023-09-07T01:06:29;5.03;;;3.15;;
71046;SDS011;58703;48.978;8.982;2023-09-07T01:09:03;5.68;;;3.15;;
71046;SDS011;58703;48.978;8.982;2023-09-07T01:11:37;3.40;;;2.95;;
71046;SDS011;58703;48.978;8.982;2023-09-07T01:14:03;3.40;;;3.03;;
71046;SDS011;58703;48.978;8.982;2023-09-07T01:16:29;2.77;;;2.40;;
71046;SDS011;58703;48.978;8.982;2023-09-07T01:18:56;4.40;;;3.15;;
71046;SDS011;58703;48.978;8.982;2023-09-07T01:21:22;3.63;;;2.97;;
71046;SDS011;58703;48.978;8.982;2023-09-07T01:23:48;4.47;;;3.00;;
71046;SDS011;58703;48.978;8.982;2023-09-07T01:26:15;4.40;;;2.47;;
71046;SDS011;58703;48.978;8.982;2023-09-07T01:28:42;3.08;;;2.10;;
71046;SDS011;58703;48.978;8.982;2023-09-07T01:31:09;3.47;;;2.70;;
71046;SDS011;58703;48.978;8.982;2023-09-07T01:33:35;8.15;;;3.15;;
71046;SDS011;58703;48.978;8.982;2023-09-07T01:36:00;4.20;;;3.17;;
71046;SDS011;58703;48.978;8.982;2023-09-07T01:38:26;5.23;;;2.80;;
71046;SDS011;58703;48.978;8.982;2023-09-07T01:40:51;4.88;;;2.83;;
71046;SDS011;58703;48.978;8.982;2023-09-07T01:43:19;4.77;;;2.80;;
71046;SDS011;58703;48.978;8.982;2023-09-07T01:45:45;6.72;;;2.40;;
71046;SDS011;58703;48.978;8.982;2023-09-07T01:48:11;3.13;;;2.50;;
71046;SDS011;58703;48.978;8.982;2023-09-07T01:50:38;3.33;;;2.53;;
71046;SDS011;58703;48.978;8.982;2023-09-07T01:53:04;2.97;;;2.57;;
71046;SDS011;58703;48.978;8.982;2023-09-07T01:55:30;4.25;;;2.85;;
71046;SDS011;58703;48.978;8.982;2023-09-07T01:57:59;3.63;;;2.70;;
71046;SDS011;58703;48.978;8.982;2023-09-07T02:00:25;3.20;;;2.80;;
71046;SDS011;58703;48.978;8.982;2023-09-07T02:02:50;4.22;;;2.90;;
71046;SDS011;58703;48.978;8.982;2023-09-07T02:05:16;3.27;;;2.67;;
71046;SDS011;58703;48.978;8.982;2023-09-07T02:07:42;5.20;;;2.90;;
71046;SDS011;58703;48.978;8.982;2023-09-07T02:10:08;4.90;;;2.83;;
71046;SDS011;58703;48.978;8.982;2023-09-07T02:12:34;2.72;;;2.53;;
71046;SDS011;58703;48.978;8.982;2023-09-07T02:15:01;3.93;;;2.47;;
71046;SDS011;58703;48.978;8.982;2023-09-07T02:17:28;3.95;;;2.33;;
71046;SDS011;58703;48.978;8.982;2023-09-07T02:19:55;3.53;;;2.38;;
71046;SDS011;58703;48.978;8.982;2023-09-07T02:22:20;3.53;;;2.30;;
71046;SDS011;58703;48.978;8.982;2023-09-07T02:24:46;2.83;;;2.30;;
71046;SDS011;58703;48.978;8.982;2023-09-07T02:27:12;4.23;;;2.80;;
71046;SDS011;58703;48.978;8.982;2023-09-07T02:29:37;5.35;;;3.30;;
71046;SDS011;58703;48.978;8.982;2023-09-07T02:32:03;4.73;;;2.40;;
71046;SDS011;58703;48.978;8.982;2023-09-07T02:34:30;3.80;;;3.13;;
71046;SDS011;58703;48.978;8.982;2023-09-07T02:36:56;4.33;;;3.93;;
71046;SDS011;58703;48.978;8.982;2023-09-07T02:39:22;7.70;;;5.10;;
71046;SDS011;58703;48.978;8.982;2023-09-07T02:41:51;5.22;;;4.03;;
71046;SDS011;58703;48.978;8.982;2023-09-07T02:44:17;5.63;;;4.33;;
71046;SDS011;58703;48.978;8.982;2023-09-07T02:46:43;4.88;;;4.15;;
71046;SDS011;58703;48.978;8.982;2023-09-07T02:49:09;6.83;;;4.13;;
71046;SDS011;58703;48.978;8.982;2023-09-07T02:51:35;5.28;;;4.47;;
71046;SDS011;58703;48.978;8.982;2023-09-07T02:54:01;6.22;;;4.60;;
71046;SDS011;58703;48.978;8.982;2023-09-07T02:56:28;6.63;;;4.80;;
71046;SDS011;58703;48.978;8.982;2023-09-07T02:58:54;8.43;;;4.45;;
71046;SDS011;58703;48.978;8.982;2023-09-07T03:01:19;7.50;;;4.43;;
71046;SDS011;58703;48.978;8.982;2023-09-07T03:03:46;8.48;;;4.68;;
71046;SDS011;58703;48.978;8.982;2023-09-07T03:06:13;7.78;;;4.10;;
71046;SDS011;58703;48.978;8.982;2023-09-07T03:08:39;4.30;;;3.90;;
71046;SDS011;58703;48.978;8.982;2023-09-07T03:11:06;6.13;;;4.13;;
71046;SDS011;58703;48.978;8.982;2023-09-07T03:13:32;5.93;;;4.45;;
71046;SDS011;58703;48.978;8.982;2023-09-07T03:15:58;6.25;;;4.60;;
71046;SDS011;58703;48.978;8.982;2023-09-07T03:18:24;5.37;;;4.23;;
71046;SDS011;58703;48.978;8.982;2023-09-07T03:20:50;6.60;;;4.22;;
71046;SDS011;58703;48.978;8.982;2023-09-07T03:23:18;6.22;;;4.25;;
71046;SDS011;58703;48.978;8.982;2023-09-07T03:25:43;5.33;;;4.00;;
71046;SDS011;58703;48.978;8.982;2023-09-07T03:28:09;5.43;;;4.10;;
71046;SDS011;58703;48.978;8.982;2023-09-07T03:30:35;7.30;;;4.18;;
71046;SDS011;58703;48.978;8.982;2023-09-07T03:33:00;4.57;;;3.87;;
71046;SDS011;58703;48.978;8.982;2023-09-07T03:35:26;4.97;;;4.27;;
71046;SDS011;58703;48.978;8.982;2023-09-07T03:37:52;6.05;;;4.28;;
71046;SDS011;58703;48.978;8.982;2023-09-07T03:40:17;5.93;;;4.20;;
71046;SDS011;58703;48.978;8.982;2023-09-07T03:42:43;6.60;;;4.43;;
71046;SDS011;58703;48.978;8.982;2023-09-07T03:45:10;5.47;;;4.05;;
71046;SDS011;58703;48.978;8.982;2023-09-07T03:47:36;5.60;;;4.03;;
71046;SDS011;58703;48.978;8.982;2023-09-07T03:50:02;3.80;;;3.40;;
71046;SDS011;58703;48.978;8.982;2023-09-07T03:52:28;4.80;;;3.80;;
71046;SDS011;58703;48.978;8.982;2023-09-07T03:54:54;9.02;;;3.90;;
71046;SDS011;58703;48.978;8.982;2023-09-07T03:57:24;6.10;;;4.28;;
71046;SDS011;58703;48.978;8.982;2023-09-07T03:59:50;8.83;;;4.00;;
71046;SDS011;58703;48.978;8.982;2023-09-07T04:02:16;4.90;;;3.83;;
71046;SDS011;58703;48.978;8.982;2023-09-07T04:04:51;6.93;;;4.53;;
71046;SDS011;58703;48.978;8.982;2023-09-07T04:07:23;4.67;;;3.70;;
71046;SDS011;58703;48.978;8.982;2023-09-07T04:09:49;9.05;;;4.75;;
71046;SDS011;58703;48.978;8.982;2023-09-07T04:12:15;7.32;;;5.53;;
71046;SDS011;58703;48.978;8.982;2023-09-07T04:14:41;9.80;;;5.77;;
71046;SDS011;58703;48.978;8.982;2023-09-07T04:17:07;8.98;;;5.60;;
71046;SDS011;58703;48.978;8.982;2023-09-07T04:19:33;8.43;;;6.18;;
71046;SDS011;58703;48.978;8.982;2023-09-07T04:21:59;8.57;;;6.33;;
71046;SDS011;58703;48.978;8.982;2023-09-07T04:24:25;8.18;;;6.15;;
71046;SDS011;58703;48.978;8.982;2023-09-07T04:26:53;9.35;;;5.38;;
71046;SDS011;58703;48.978;8.982;2023-09-07T04:29:19;10.07;;;6.07;;
71046;SDS011;58703;48.978;8.982;2023-09-07T04:31:44;8.17;;;6.00;;
71046;SDS011;58703;48.978;8.982;2023-09-07T04:34:10;8.03;;;5.90;;
71046;SDS011;58703;48.978;8.982;2023-09-07T04:36:35;7.10;;;5.57;;
71046;SDS011;58703;48.978;8.982;2023-09-07T04:39:02;7.50;;;5.10;;
71046;SDS011;58703;48.978;8.982;2023-09-07T04:41:28;6.47;;;5.20;;
71046;SDS011;58703;48.978;8.982;2023-09-07T04:43:54;7.30;;;5.37;;
71046;SDS011;58703;48.978;8.982;2023-09-07T04:46:21;7.10;;;5.50;;
71046;SDS011;58703;48.978;8.982;2023-09-07T04:48:47;8.50;;;5.17;;
71046;SDS011;58703;48.978;8.982;2023-09-07T04:51:12;7.05;;;5.28;;
71046;SDS011;58703;48.978;8.982;2023-09-07T04:53:38;12.07;;;5.70;;
71046;SDS011;58703;48.978;8.982;2023-09-07T04:56:04;8.50;;;5.20;;
71046;SDS011;58703;48.978;8.982;2023-09-07T04:58:31;7.00;;;5.20;;
71046;SDS011;58703;48.978;8.982;2023-09-07T05:01:04;9.80;;;4.90;;
71046;SDS011;58703;48.978;8.982;2023-09-07T05:03:30;8.77;;;5.35;;
71046;SDS011;58703;48.978;8.982;2023-09-07T05:05:56;9.02;;;4.97;;
71046;SDS011;58703;48.978;8.982;2023-09-07T05:08:22;7.17;;;4.87;;
71046;SDS011;58703;48.978;8.982;2023-09-07T05:10:54;5.00;;;4.22;;
71046;SDS011;58703;48.978;8.982;2023-09-07T05:13:22;6.93;;;4.35;;
71046;SDS011;58703;48.978;8.982;2023-09-07T05:15:48;6.38;;;4.00;;
71046;SDS011;58703;48.978;8.982;2023-09-07T05:18:14;6.10;;;5.05;;
71046;SDS011;58703;48.978;8.982;2023-09-07T05:20:40;8.53;;;5.63;;
71046;SDS011;58703;48.978;8.982;2023-09-07T05:23:05;6.77;;;4.80;;
71046;SDS011;58703;48.978;8.982;2023-09-07T05:25:31;6.55;;;5.18;;
71046;SDS011;58703;48.978;8.982;2023-09-07T05:27:57;9.10;;;6.80;;
71046;SDS011;58703;48.978;8.982;2023-09-07T05:30:23;14.07;;;6.88;;
71046;SDS011;58703;48.978;8.982;2023-09-07T05:32:48;13.13;;;7.17;;
71046;SDS011;58703;48.978;8.982;2023-09-07T05:35:14;8.90;;;6.20;;
71046;SDS011;58703;48.978;8.982;2023-09-07T05:37:41;7.75;;;4.75;;
71046;SDS011;58703;48.978;8.982;2023-09-07T05:40:07;8.85;;;4.50;;
71046;SDS011;58703;48.978;8.982;2023-09-07T05:42:33;8.27;;;5.00;;
71046;SDS011;58703;48.978;8.982;2023-09-07T05:44:59;6.10;;;4.68;;
71046;SDS011;58703;48.978;8.982;2023-09-07T05:47:24;6.23;;;4.50;;
71046;SDS011;58703;48.978;8.982;2023-09-07T05:49:51;5.65;;;4.45;;
71046;SDS011;58703;48.978;8.982;2023-09-07T05:52:17;8.82;;;4.68;;
71046;SDS011;58703;48.978;8.982;2023-09-07T05:54:43;5.00;;;4.00;;
71046;SDS011;58703;48.978;8.982;2023-09-07T05:57:08;6.13;;;3.73;;
71046;SDS011;58703;48.978;8.982;2023-09-07T05:59:34;4.45;;;4.05;;
71046;SDS011;58703;48.978;8.982;2023-09-07T06:01:59;9.30;;;4.10;;
71046;SDS011;58703;48.978;8.982;2023-09-07T06:04:25;6.07;;;4.50;;
71046;SDS011;58703;48.978;8.982;2023-09-07T06:06:51;6.13;;;3.90;;
71046;SDS011;58703;48.978;8.982;2023-09-07T06:09:17;6.10;;;4.40;;
71046;SDS011;58703;48.978;8.982;2023-09-07T06:11:42;6.40;;;3.87;;
71046;SDS011;58703;48.978;8.982;2023-09-07T06:14:08;7.50;;;4.00;;
71046;SDS011;58703;48.978;8.982;2023-09-07T06:16:33;6.80;;;4.10;;
71046;SDS011;58703;48.978;8.982;2023-09-07T06:19:00;5.97;;;3.72;;
71046;SDS011;58703;48.978;8.982;2023-09-07T06:21:25;5.77;;;3.57;;
71046;SDS011;58703;48.978;8.982;2023-09-07T06:23:51;4.72;;;3.80;;
71046;SDS011;58703;48.978;8.982;2023-09-07T06:26:17;5.20;;;3.60;;
71046;SDS011;58703;48.978;8.982;2023-09-07T06:28:43;6.72;;;3.20;;
71046;SDS011;58703;48.978;8.982;2023-09-07T06:31:08;6.83;;;4.10;;
71046;SDS011;58703;48.978;8.982;2023-09-07T06:33:34;7.50;;;4.00;;
71046;SDS011;58703;48.978;8.982;2023-09-07T06:36:00;6.43;;;4.00;;
71046;SDS011;58703;48.978;8.982;2023-09-07T06:38:27;6.40;;;4.10;;
71046;SDS011;58703;48.978;8.982;2023-09-07T06:40:53;4.87;;;3.97;;
71046;SDS011;58703;48.978;8.982;2023-09-07T06:43:18;4.37;;;3.70;;
71046;SDS011;58703;48.978;8.982;2023-09-07T06:45:44;4.38;;;3.97;;
71046;SDS011;58703;48.978;8.982;2023-09-07T06:48:10;7.00;;;4.20;;
71046;SDS011;58703;48.978;8.982;2023-09-07T06:50:35;5.07;;;4.03;;
71046;SDS011;58703;48.978;8.982;2023-09-07T06:53:01;4.83;;;3.50;;
71046;SDS011;58703;48.978;8.982;2023-09-07T06:55:28;4.68;;;4.15;;
71046;SDS011;58703;48.978;8.982;2023-09-07T06:57:54;3.95;;;3.30;;
71046;SDS011;58703;48.978;8.982;2023-09-07T07:00:21;4.00;;;3.60;;
71046;SDS011;58703;48.978;8.982;2023-09-07T07:02:47;5.07;;;3.70;;
71046;SDS011;58703;48.978;8.982;2023-09-07T07:05:12;3.97;;;3.47;;
71046;SDS011;58703;48.978;8.982;2023-09-07T07:07:38;4.37;;;3.60;;
71046;SDS011;58703;48.978;8.982;2023-09-07T07:10:05;4.60;;;3.80;;
71046;SDS011;58703;48.978;8.982;2023-09-07T07:12:31;8.95;;;4.25;;
71046;SDS011;58703;48.978;8.982;2023-09-07T07:15:00;6.15;;;3.45;;
71046;SDS011;58703;48.978;8.982;2023-09-07T07:17:27;4.07;;;3.20;;
71046;SDS011;58703;48.978;8.982;2023-09-07T07:19:52;4.88;;;3.38;;
71046;SDS011;58703;48.978;8.982;2023-09-07T07:22:18;6.03;;;3.40;;
71046;SDS011;58703;48.978;8.982;2023-09-07T07:24:43;4.30;;;3.70;;
71046;SDS011;58703;48.978;8.982;2023-09-07T07:27:09;4.50;;;3.70;;
71046;SDS011;58703;48.978;8.982;2023-09-07T07:29:36;6.80;;;3.20;;
71046;SDS011;58703;48.978;8.982;2023-09-07T07:32:02;11.50;;;3.70;;
71046;SDS011;58703;48.978;8.982;2023-09-07T07:34:29;5.75;;;3.38;;
71046;SDS011;58703;48.978;8.982;2023-09-07T07:36:54;6.22;;;3.63;;
71046;SDS011;58703;48.978;8.982;2023-09-07T07:39:20;5.07;;;3.70;;
71046;SDS011;58703;48.978;8.982;2023-09-07T07:41:46;7.37;;;3.80;;
71046;SDS011;58703;48.978;8.982;2023-09-07T07:44:11;6.45;;;3.70;;
71046;SDS011;58703;48.978;8.982;2023-09-07T07:46:37;8.43;;;4.10;;
71046;SDS011;58703;48.978;8.982;2023-09-07T07:49:02;4.07;;;3.33;;
71046;SDS011;58703;48.978;8.982;2023-09-07T07:51:28;5.40;;;3.55;;
71046;SDS011;58703;48.978;8.982;2023-09-07T07:53:54;4.97;;;4.00;;
71046;SDS011;58703;48.978;8.982;2023-09-07T07:56:21;6.38;;;3.83;;
71046;SDS011;58703;48.978;8.982;2023-09-07T07:58:47;5.97;;;3.53;;
71046;SDS011;58703;48.978;8.982;2023-09-07T08:01:16;6.17;;;3.40;;
71046;SDS011;58703;48.978;8.982;2023-09-07T08:03:42;6.68;;;3.20;;
71046;SDS011;58703;48.978;8.982;2023-09-07T08:06:08;4.73;;;3.33;;
71046;SDS011;58703;48.978;8.982;2023-09-07T08:08:34;6.22;;;3.70;;
71046;SDS011;58703;48.978;8.982;2023-09-07T08:11:00;6.22;;;3.78;;
71046;SDS011;58703;48.978;8.982;2023-09-07T08:13:34;6.78;;;3.65;;
71046;SDS011;58703;48.978;8.982;2023-09-07T08:16:03;6.13;;;3.90;;
71046;SDS011;58703;48.978;8.982;2023-09-07T08:18:29;4.72;;;3.63;;
71046;SDS011;58703;48.978;8.982;2023-09-07T08:20:57;4.40;;;4.00;;
71046;SDS011;58703;48.978;8.982;2023-09-07T08:23:23;6.20;;;3.65;;
71046;SDS011;58703;48.978;8.982;2023-09-07T08:25:50;5.07;;;4.00;;
71046;SDS011;58703;48.978;8.982;2023-09-07T08:28:16;5.82;;;4.43;;
71046;SDS011;58703;48.978;8.982;2023-09-07T08:30:43;5.78;;;4.75;;
71046;SDS011;58703;48.978;8.982;2023-09-07T08:33:09;4.97;;;3.80;;
71046;SDS011;58703;48.978;8.982;2023-09-07T08:35:35;8.00;;;4.33;;
71046;SDS011;58703;48.978;8.982;2023-09-07T08:38:02;4.40;;;4.03;;
71046;SDS011;58703;48.978;8.982;2023-09-07T08:40:30;7.22;;;4.40;;
71046;SDS011;58703;48.978;8.982;2023-09-07T08:43:00;6.57;;;4.13;;
71046;SDS011;58703;48.978;8.982;2023-09-07T08:45:29;6.57;;;3.97;;
71046;SDS011;58703;48.978;8.982;2023-09-07T08:47:57;8.48;;;4.30;;
71046;SDS011;58703;48.978;8.982;2023-09-07T08:50:24;6.30;;;3.95;;
71046;SDS011;58703;48.978;8.982;2023-09-07T08:52:51;4.45;;;3.50;;
71046;SDS011;58703;48.978;8.982;2023-09-07T08:55:18;4.80;;;3.80;;
71046;SDS011;58703;48.978;8.982;2023-09-07T08:57:45;4.25;;;3.85;;
71046;SDS011;58703;48.978;8.982;2023-09-07T09:00:10;12.85;;;5.10;;
71046;SDS011;58703;48.978;8.982;2023-09-07T09:02:49;5.90;;;3.57;;
71046;SDS011;58703;48.978;8.982;2023-09-07T09:05:16;5.38;;;4.20;;
71046;SDS011;58703;48.978;8.982;2023-09-07T09:07:45;7.45;;;4.10;;
71046;SDS011;58703;48.978;8.982;2023-09-07T09:10:11;7.28;;;3.97;;
71046;SDS011;58703;48.978;8.982;2023-09-07T09:12:44;5.60;;;4.00;;
71046;SDS011;58703;48.978;8.982;2023-09-07T09:15:11;7.68;;;4.05;;
71046;SDS011;58703;48.978;8.982;2023-09-07T09:17:36;7.83;;;4.20;;
71046;SDS011;58703;48.978;8.982;2023-09-07T09:20:02;5.00;;;4.50;;
71046;SDS011;58703;48.978;8.982;2023-09-07T09:22:31;5.63;;;4.27;;
71046;SDS011;58703;48.978;8.982;2023-09-07T09:24:56;5.40;;;4.10;;
71046;SDS011;58703;48.978;8.982;2023-09-07T09:27:22;4.30;;;3.90;;
71046;SDS011;58703;48.978;8.982;2023-09-07T09:29:49;5.73;;;3.73;;
71046;SDS011;58703;48.978;8.982;2023-09-07T09:32:16;5.32;;;4.18;;
71046;SDS011;58703;48.978;8.982;2023-09-07T09:34:43;5.37;;;3.97;;
71046;SDS011;58703;48.978;8.982;2023-09-07T09:37:12;10.02;;;4.75;;
71046;SDS011;58703;48.978;8.982;2023-09-07T09:39:40;4.30;;;3.90;;
71046;SDS011;58703;48.978;8.982;2023-09-07T09:42:06;6.28;;;4.63;;
71046;SDS011;58703;48.978;8.982;2023-09-07T09:44:33;8.82;;;4.38;;
71046;SDS011;58703;48.978;8.982;2023-09-07T09:47:02;8.00;;;4.37;;
71046;SDS011;58703;48.978;8.982;2023-09-07T09:49:28;6.00;;;4.35;;
71046;SDS011;58703;48.978;8.982;2023-09-07T09:51:54;6.72;;;4.25;;
71046;SDS011;58703;48.978;8.982;2023-09-07T09:54:23;9.35;;;4.43;;
71046;SDS011;58703;48.978;8.982;2023-09-07T09:56:51;6.97;;;3.83;;
71046;SDS011;58703;48.978;8.982;2023-09-07T09:59:17;7.80;;;4.43;;
71046;SDS011;58703;48.978;8.982;2023-09-07T10:01:44;6.22;;;4.32;;
71046;SDS011;58703;48.978;8.982;2023-09-07T10:04:13;5.57;;;3.77;;
71046;SDS011;58703;48.978;8.982;2023-09-07T10:06:49;5.60;;;4.20;;
71046;SDS011;58703;48.978;8.982;2023-09-07T10:09:19;4.57;;;3.80;;
71046;SDS011;58703;48.978;8.982;2023-09-07T10:11:50;5.60;;;4.20;;
71046;SDS011;58703;48.978;8.982;2023-09-07T10:14:17;6.20;;;3.85;;
71046;SDS011;58703;48.978;8.982;2023-09-07T10:16:44;5.07;;;3.60;;
71046;SDS011;58703;48.978;8.982;2023-09-07T10:19:17;3.60;;;3.30;;
71046;SDS011;58703;48.978;8.982;2023-09-07T10:21:43;6.50;;;3.67;;
71046;SDS011;58703;48.978;8.982;2023-09-07T10:24:09;6.40;;;3.50;;
71046;SDS011;58703;48.978;8.982;2023-09-07T10:26:36;5.10;;;3.40;;
71046;SDS011;58703;48.978;8.982;2023-09-07T10:29:02;4.20;;;3.70;;
71046;SDS011;58703;48.978;8.982;2023-09-07T10:31:29;5.18;;;3.60;;
71046;SDS011;58703;48.978;8.982;2023-09-07T10:34:07;4.05;;;3.40;;
71046;SDS011;58703;48.978;8.982;2023-09-07T10:36:37;3.97;;;3.47;;
71046;SDS011;58703;48.978;8.982;2023-09-07T10:39:03;4.95;;;3.47;;
71046;SDS011;58703;48.978;8.982;2023-09-07T10:41:43;5.55;;;3.80;;
71046;SDS011;58703;48.978;8.982;2023-09-07T10:44:09;4.60;;;3.30;;
71046;SDS011;58703;48.978;8.982;2023-09-07T10:46:39;3.90;;;3.50;;
71046;SDS011;58703;48.978;8.982;2023-09-07T10:49:08;4.00;;;2.65;;
71046;SDS011;58703;48.978;8.982;2023-09-07T10:51:43;8.45;;;3.58;;
71046;SDS011;58703;48.978;8.982;2023-09-07T10:54:14;4.82;;;3.30;;
71046;SDS011;58703;48.978;8.982;2023-09-07T10:56:42;4.55;;;3.10;;
71046;SDS011;58703;48.978;8.982;2023-09-07T10:59:09;5.93;;;3.30;;
71046;SDS011;58703;48.978;8.982;2023-09-07T11:01:34;6.35;;;3.20;;
71046;SDS011;58703;48.978;8.982;2023-09-07T11:04:00;4.20;;;3.37;;
71046;SDS011;58703;48.978;8.982;2023-09-07T11:06:26;3.38;;;3.05;;
71046;SDS011;58703;48.978;8.982;2023-09-07T11:08:51;3.83;;;3.43;;
71046;SDS011;58703;48.978;8.982;2023-09-07T11:11:17;5.30;;;3.45;;
71046;SDS011;58703;48.978;8.982;2023-09-07T11:13:43;7.17;;;3.87;;
71046;SDS011;58703;48.978;8.982;2023-09-07T11:16:08;5.33;;;3.63;;
71046;SDS011;58703;48.978;8.982;2023-09-07T11:18:35;4.25;;;3.00;;
71046;SDS011;58703;48.978;8.982;2023-09-07T11:21:04;3.55;;;3.08;;
71046;SDS011;58703;48.978;8.982;2023-09-07T11:23:30;4.55;;;3.03;;
71046;SDS011;58703;48.978;8.982;2023-09-07T11:26:07;5.15;;;3.25;;
71046;SDS011;58703;48.978;8.982;2023-09-07T11:28:33;4.30;;;2.90;;
71046;SDS011;58703;48.978;8.982;2023-09-07T11:30:59;4.38;;;2.78;;
71046;SDS011;58703;48.978;8.982;2023-09-07T11:33:25;3.40;;;2.80;;
71046;SDS011;58703;48.978;8.982;2023-09-07T11:35:52;3.67;;;3.10;;
71046;SDS011;58703;48.978;8.982;2023-09-07T11:38:21;4.22;;;2.90;;
71046;SDS011;58703;48.978;8.982;2023-09-07T11:40:47;3.22;;;2.92;;
71046;SDS011;58703;48.978;8.982;2023-09-07T11:43:13;4.68;;;2.80;;
71046;SDS011;58703;48.978;8.982;2023-09-07T11:45:40;5.27;;;2.70;;
71046;SDS011;58703;48.978;8.982;2023-09-07T11:48:07;3.85;;;2.88;;
71046;SDS011;58703;48.978;8.982;2023-09-07T11:50:35;3.13;;;2.75;;
71046;SDS011;58703;48.978;8.982;2023-09-07T11:53:02;6.32;;;2.50;;
71046;SDS011;58703;48.978;8.982;2023-09-07T11:55:28;3.50;;;2.80;;
71046;SDS011;58703;48.978;8.982;2023-09-07T11:57:53;3.38;;;3.08;;
71046;SDS011;58703;48.978;8.982;2023-09-07T12:00:19;5.33;;;2.57;;
71046;SDS011;58703;48.978;8.982;2023-09-07T12:02:45;3.33;;;3.03;;
71046;SDS011;58703;48.978;8.982;2023-09-07T12:05:11;3.40;;;2.83;;
71046;SDS011;58703;48.978;8.982;2023-09-07T12:07:40;4.18;;;3.13;;
71046;SDS011;58703;48.978;8.982;2023-09-07T12:10:08;9.52;;;3.05;;
71046;SDS011;58703;48.978;8.982;2023-09-07T12:12:41;4.32;;;3.17;;
71046;SDS011;58703;48.978;8.982;2023-09-07T12:15:09;6.25;;;3.30;;
71046;SDS011;58703;48.978;8.982;2023-09-07T12:17:36;3.50;;;3.20;;
71046;SDS011;58703;48.978;8.982;2023-09-07T12:20:02;3.45;;;2.92;;
71046;SDS011;58703;48.978;8.982;2023-09-07T12:22:30;3.30;;;3.00;;
71046;SDS011;58703;48.978;8.982;2023-09-07T12:24:56;3.33;;;2.97;;
71046;SDS011;58703;48.978;8.982;2023-09-07T12:27:21;3.30;;;3.00;;
71046;SDS011;58703;48.978;8.982;2023-09-07T12:29:48;6.38;;;3.05;;
71046;SDS011;58703;48.978;8.982;2023-09-07T12:32:14;3.20;;;2.50;;
71046;SDS011;58703;48.978;8.982;2023-09-07T12:34:39;4.13;;;2.87;;
71046;SDS011;58703;48.978;8.982;2023-09-07T12:37:06;2.80;;;2.60;;
71046;SDS011;58703;48.978;8.982;2023-09-07T12:39:32;3.88;;;3.15;;
71046;SDS011;58703;48.978;8.982;2023-09-07T12:41:57;3.78;;;2.60;;
71046;SDS011;58703;48.978;8.982;2023-09-07T12:44:23;4.00;;;3.27;;
71046;SDS011;58703;48.978;8.982;2023-09-07T12:46:49;3.67;;;2.90;;
71046;SDS011;58703;48.978;8.982;2023-09-07T12:49:14;4.70;;;3.17;;
71046;SDS011;58703;48.978;8.982;2023-09-07T12:51:40;5.70;;;3.00;;
71046;SDS011;58703;48.978;8.982;2023-09-07T12:54:06;3.20;;;2.78;;
71046;SDS011;58703;48.978;8.982;2023-09-07T12:56:32;3.00;;;2.70;;
71046;SDS011;58703;48.978;8.982;2023-09-07T12:58:58;4.47;;;2.83;;
71046;SDS011;58703;48.978;8.982;2023-09-07T13:01:27;2.60;;;2.40;;
71046;SDS011;58703;48.978;8.982;2023-09-07T13:03:53;3.17;;;2.55;;
71046;SDS011;58703;48.978;8.982;2023-09-07T13:06:18;3.78;;;2.75;;
71046;SDS011;58703;48.978;8.982;2023-09-07T13:08:46;5.13;;;2.87;;
71046;SDS011;58703;48.978;8.982;2023-09-07T13:11:11;4.28;;;2.55;;
71046;SDS011;58703;48.978;8.982;2023-09-07T13:13:37;6.38;;;2.80;;
71046;SDS011;58703;48.978;8.982;2023-09-07T13:16:03;4.23;;;2.60;;
71046;SDS011;58703;48.978;8.982;2023-09-07T13:18:29;4.13;;;2.92;;
71046;SDS011;58703;48.978;8.982;2023-09-07T13:20:54;2.70;;;2.43;;
71046;SDS011;58703;48.978;8.982;2023-09-07T13:23:28;2.72;;;2.53;;
71046;SDS011;58703;48.978;8.982;2023-09-07T13:25:55;3.95;;;2.75;;
71046;SDS011;58703;48.978;8.982;2023-09-07T13:28:21;4.70;;;2.83;;
71046;SDS011;58703;48.978;8.982;2023-09-07T13:30:47;3.55;;;2.83;;
71046;SDS011;58703;48.978;8.982;2023-09-07T13:33:13;4.03;;;2.80;;
71046;SDS011;58703;48.978;8.982;2023-09-07T13:35:38;3.20;;;2.53;;
71046;SDS011;58703;48.978;8.982;2023-09-07T13:38:04;2.92;;;2.58;;
71046;SDS011;58703;48.978;8.982;2023-09-07T13:40:30;3.22;;;2.80;;
71046;SDS011;58703;48.978;8.982;2023-09-07T13:42:56;5.77;;;2.67;;
71046;SDS011;58703;48.978;8.982;2023-09-07T13:45:22;2.90;;;2.58;;
71046;SDS011;58703;48.978;8.982;2023-09-07T13:47:48;5.90;;;2.80;;
71046;SDS011;58703;48.978;8.982;2023-09-07T13:50:13;5.90;;;2.92;;
71046;SDS011;58703;48.978;8.982;2023-09-07T13:52:39;3.17;;;2.97;;
71046;SDS011;58703;48.978;8.982;2023-09-07T13:55:05;4.82;;;2.78;;
71046;SDS011;58703;48.978;8.982;2023-09-07T13:57:32;4.20;;;2.80;;
71046;SDS011;58703;48.978;8.982;2023-09-07T13:59:58;3.35;;;3.05;;
71046;SDS011;58703;48.978;8.982;2023-09-07T14:02:24;3.28;;;2.63;;
71046;SDS011;58703;48.978;8.982;2023-09-07T14:04:49;3.97;;;3.00;;
71046;SDS011;58703;48.978;8.982;2023-09-07T14:07:15;5.32;;;2.78;;
71046;SDS011;58703;48.978;8.982;2023-09-07T14:09:41;3.43;;;3.13;;
71046;SDS011;58703;48.978;8.982;2023-09-07T14:12:06;3.35;;;3.00;;
71046;SDS011;58703;48.978;8.982;2023-09-07T14:14:32;3.38;;;2.63;;
71046;SDS011;58703;48.978;8.982;2023-09-07T14:16:58;3.25;;;2.88;;
71046;SDS011;58703;48.978;8.982;2023-09-07T14:19:28;3.72;;;3.10;;
71046;SDS011;58703;48.978;8.982;2023-09-07T14:21:56;3.40;;;3.10;;
71046;SDS011;58703;48.978;8.982;2023-09-07T14:24:23;3.05;;;2.70;;
71046;SDS011;58703;48.978;8.982;2023-09-07T14:26:49;4.20;;;3.10;;
71046;SDS011;58703;48.978;8.982;2023-09-07T14:29:14;6.03;;;2.97;;
71046;SDS011;58703;48.978;8.982;2023-09-07T14:31:40;3.73;;;3.10;;
71046;SDS011;58703;48.978;8.982;2023-09-07T14:34:07;4.43;;;3.10;;
71046;SDS011;58703;48.978;8.982;2023-09-07T14:36:33;4.32;;;2.88;;
71046;SDS011;58703;48.978;8.982;2023-09-07T14:38:59;3.07;;;2.70;;
71046;SDS011;58703;48.978;8.982;2023-09-07T14:41:24;3.47;;;3.17;;
71046;SDS011;58703;48.978;8.982;2023-09-07T14:43:50;3.67;;;3.38;;